• Join FlightAware (Why Join?)
  • Login
  • US Flag 
07:45PM EST


 

Airport Tracker/Info


-or-


 

Live Flight TrackerFlight Track Log ✈ CES2102 ✈ 02-Aug-2014 ✈ ZBAA / PEK - ZLXY / XIY

Flight Track Log - Related Links

Times and Time Zones

All times are in EDT time to prevent confusion due to time zone crossing. See the CES2102 flight status page for this flight to view local times or setup timezone preferences in your user account.

Time Position Orientation Groundspeed Altitude Reporting Facility
EDT Latitude Longitude Course Direction KTS MPH feet Rate Location/Type
09:46PM 37.0573 112.1480 230° Southwest  Level Estimated
09:47PM 36.9898 112.0556 228° Southwest  Level Estimated
09:48PM 36.9222 111.9633 228° Southwest  Level Estimated
09:49PM 36.8545 111.8713 227° Southwest  Level Estimated
09:50PM 36.7868 111.7794 227° Southwest  Level Estimated
09:51PM 36.7190 111.6876 227° Southwest  Level Estimated
09:52PM 36.6511 111.5960 227° Southwest  Level Estimated
09:53PM 36.5832 111.5046 227° Southwest  Level Estimated
09:54PM 36.5152 111.4134 227° Southwest  Level Estimated
09:55PM 36.4471 111.3223 227° Southwest  Level Estimated
09:56PM 36.3790 111.2313 227° Southwest  Level Estimated
09:57PM 36.3108 111.1405 227° Southwest  Level Estimated
09:58PM 36.2425 111.0499 227° Southwest  Level Estimated
09:59PM 36.1741 110.9594 227° Southwest  Level Estimated
10:00PM 36.1057 110.8691 227° Southwest  Level Estimated
10:01PM 36.0372 110.7790 227° Southwest  Level Estimated
10:02PM 35.9687 110.6890 227° Southwest  Level Estimated
10:03PM 35.9001 110.5992 227° Southwest  Level Estimated
10:04PM 35.8314 110.5095 227° Southwest  Level Estimated
10:05PM 35.7626 110.4200 227° Southwest  Level Estimated
10:06PM 35.6938 110.3306 227° Southwest  Level Estimated
10:07PM 35.6249 110.2414 226° Southwest  Level Estimated
10:08PM 35.5560 110.1523 226° Southwest  Level Estimated
10:09PM 35.4869 110.0634 226° Southwest  Level Estimated
10:10PM 35.4179 109.9746 226° Southwest  Level Estimated
10:11PM 35.3487 109.8860 226° Southwest  Level Estimated
10:12PM 35.2795 109.7976 226° Southwest  Level Estimated
10:13PM 35.2102 109.7093 226° Southwest  Level Estimated
10:14PM 35.1409 109.6211 226° Southwest  Level Estimated
10:15PM 35.0715 109.5331 226° Southwest  Level Estimated
10:16PM 35.0020 109.4453 226° Southwest  Level Estimated
10:17PM 34.9325 109.3576 226° Southwest  Level Estimated
10:18PM 34.8629 109.2700 226° Southwest  Level Estimated
10:19PM 34.7932 109.1826 226° Southwest  Level Estimated
10:20PM 34.7235 109.0953 226° Southwest  Level Estimated
10:21PM 34.6538 109.0082 226° Southwest  Level Estimated
10:22PM 34.5839 108.9213 226° Southwest  Level Estimated
10:23PM 34.5140 108.8344 226° Southwest  Level Estimated
10:24PM 34.4471 108.7516 226° Southwest  Level Estimated
10:25PM 34.4471 108.7516 North  Level Estimated
10:26PM 34.4471 108.7516 North  Level Estimated
10:27PM 34.4471 108.7516 North  Level Estimated
10:28PM 34.4471 108.7516 North  Level Estimated
10:29PM 34.4471 108.7516 North  Level Estimated
10:30PM 34.4471 108.7516 North  Level Estimated
10:31PM 34.4471 108.7516 North  Level Estimated
10:32PM 34.4471 108.7516 North  Level Estimated
10:33PM 34.4471 108.7516 North  Level Estimated
10:34PM 34.4471 108.7516 North  Level Estimated
10:35PM 34.4471 108.7516 North  Level Estimated
10:36PM 34.4471 108.7516 North  Level Estimated
10:37PM 34.4471 108.7516 North  Level Estimated
10:38PM 34.4471 108.7516 North  Level Estimated
10:39PM 34.4471 108.7516 North  Level Estimated
10:40PM 34.4471 108.7516 North  Level Estimated
10:41PM 34.4471 108.7516 North  Level Estimated
10:42PM 34.4471 108.7516 North  Level Estimated
10:43PM 34.4471 108.7516 North  Level Estimated